Deberrie, Arkansas
Current Conditions -  °F | °C
As of 3:40 PM on Saturday 20 Dec 2014 (Local Time) from KRUE Reporting Station
Overcast Overcast  
Wind Chill: 46°   Ceiling: 2200
Heat Index: 48°   Visibility: 9mi
Dew Point: 38°   Wind: 5mph
Humidity: 68%   Direction: 220°SW
Pressure: 30.21"   Gusts: NA
Location:  34.9067°N, 93.0072°W
Report Text: KRUE 202140Z AUTO 22004KT 9SM BKN022 OVC045 09/03 A3021 RMK AO2 T00890033
Loading
Personal Weather Stations






























Interactive Weather Map New forecast layout! Learn more

10-Day Weather Forecast

Advertisements
Track Severe Weather on mobile